You are listening to:
RJTT ATIS - Tokyo, Japan

RJTT 121630Z 36011KT 9999 FEW030 BKN/// 15/10 Q1017 NOSIG RMK 1CU030 A3005

If stream doesn't start automatically press the play button
If stream stops then reload player then press play